»·PEaware :: N4A KGEG-KONP

N4A :: KGEG-KONP

FLIGHT INFORMATION

Flight Status: Arrived
Operator: Privately registered:
United States
More flights under this callsign
Pilot: Alec D. (17934)
Aircraft: CESSNA 510 CITATION MUSTANG
(C510)
More flights by this aircraft type
Origin: KGEG Spokane Intl
United States
Destination: KONP Newport Mun
United States
More flights between these airports :: More routes between these airports
Route: +YKM J136 ONP
File this flight plan on PilotEdge
Remarks:
Altitude:
(Current/Filed)
34,000ft
Speed:
(Current/Filed)
330kts
Departed: 10-May-18 08:46 AM
Arrived: 10-May-18 10:09 AM
Distance/Time
Traveled:
327nm/1:23
Distance/Time
To Go:
Arrived

Flight Plot

Page will automatically refresh every two minutes.

Flight plan parsing failed; only flown route is shown


Map Options




Map Legend


Flown Route
Filed Route
Departure Airport
Arrival Airport
Navaid (VOR, NDB)
Fix

Horizontal Profiles

Position Reports

Time Latitude Longitude Heading Altitude Ground
Speed
10-May-18 08:30 47.620186 -117.528645 268 2374ft 0kts
10-May-18 08:31 47.620186 -117.528646 268 2374ft 0kts
10-May-18 08:32 47.620186 -117.528647 268 2374ft 0kts
10-May-18 08:33 47.620186 -117.528648 268 2374ft 0kts
10-May-18 08:34 47.620186 -117.528650 268 2374ft 0kts
10-May-18 08:35 47.620186 -117.528651 268 2374ft 0kts
10-May-18 08:36 47.620186 -117.528652 268 2374ft 0kts
10-May-18 08:37 47.620186 -117.528653 268 2374ft 0kts
10-May-18 08:38 47.620186 -117.528654 268 2374ft 0kts
10-May-18 08:39 47.620242 -117.528785 332 2374ft 4kts
10-May-18 08:40 47.620875 -117.529064 335 2374ft 6kts
10-May-18 08:41 47.622966 -117.527171 45 2374ft 14kts
10-May-18 08:42 47.625388 -117.523530 46 2374ft 14kts
10-May-18 08:43 47.628463 -117.518905 45 2374ft 15kts
10-May-18 08:44 47.629676 -117.517131 40 2374ft 5kts
10-May-18 08:45 47.630870 -117.518812 226 2374ft 8kts
10-May-18 08:46 47.613883 -117.545201 226 3083ft 140kts
10-May-18 08:47 47.579328 -117.591901 220 5413ft 186kts
10-May-18 08:48 47.546766 -117.653186 244 8115ft 195kts
10-May-18 08:49 47.522794 -117.725593 245 10716ft 198kts
10-May-18 08:50 47.498981 -117.797157 247 13237ft 194kts
10-May-18 08:51 47.475437 -117.868055 243 15785ft 182kts
10-May-18 08:52 47.452802 -117.935598 243 17890ft 183kts
10-May-18 08:53 47.429950 -118.003586 243 19723ft 187kts
10-May-18 08:54 47.406566 -118.073037 244 21394ft 190kts
10-May-18 08:55 47.382672 -118.143843 245 22942ft 194kts
10-May-18 08:56 47.358427 -118.215755 241 24298ft 200kts
10-May-18 08:57 47.332755 -118.291192 242 25494ft 210kts
10-May-18 08:58 47.306251 -118.368996 243 26586ft 217kts
10-May-18 08:59 47.278754 -118.449549 243 27604ft 220kts
10-May-18 09:00 47.250887 -118.530935 243 28508ft 221kts
10-May-18 09:01 47.222907 -118.612380 244 29287ft 223kts
10-May-18 09:02 47.194754 -118.694093 244 29989ft 225kts
10-May-18 09:03 47.166359 -118.776249 245 30644ft 226kts
10-May-18 09:04 47.137803 -118.858609 245 31265ft 228kts
10-May-18 09:05 47.108925 -118.941633 245 31885ft 228kts
10-May-18 09:06 47.079949 -119.024677 245 32483ft 228kts
10-May-18 09:07 47.050707 -119.108227 245 32979ft 232kts
10-May-18 09:08 47.020972 -119.192887 245 33508ft 234kts
10-May-18 09:09 46.991098 -119.277659 245 34018ft 235kts
10-May-18 09:10 46.959849 -119.366188 245 34052ft 255kts
10-May-18 09:11 46.925923 -119.461832 245 34059ft 272kts
10-May-18 09:12 46.890246 -119.561993 244 34062ft 284kts
10-May-18 09:13 46.853109 -119.665835 244 34063ft 292kts
10-May-18 09:14 46.814809 -119.772491 244 34069ft 298kts
10-May-18 09:15 46.775889 -119.880444 244 34068ft 303kts
10-May-18 09:16 46.736611 -119.988888 244 34082ft 301kts
10-May-18 09:17 46.697079 -120.097652 244 34080ft 304kts
10-May-18 09:18 46.657511 -120.206454 244 34080ft 304kts
10-May-18 09:19 46.617717 -120.315525 244 34081ft 304kts
10-May-18 09:20 46.577835 -120.424065 244 34082ft 304kts
10-May-18 09:21 46.537854 -120.532393 243 34082ft 304kts
10-May-18 09:22 46.497601 -120.641108 243 34084ft 305kts
10-May-18 09:23 46.457303 -120.749562 243 34085ft 306kts
10-May-18 09:24 46.416823 -120.858030 243 34087ft 305kts
10-May-18 09:25 46.376269 -120.966265 243 34097ft 305kts
10-May-18 09:26 46.335619 -121.074363 243 34101ft 306kts
10-May-18 09:27 46.294989 -121.181918 243 34123ft 304kts
10-May-18 09:28 46.254202 -121.289512 243 34134ft 304kts
10-May-18 09:29 46.213532 -121.396367 244 34154ft 304kts
10-May-18 09:30 46.172649 -121.503350 244 34161ft 303kts
10-May-18 09:31 46.131882 -121.609628 244 34176ft 303kts
10-May-18 09:32 46.091048 -121.715638 244 34202ft 303kts
10-May-18 09:33 46.049912 -121.822025 244 34201ft 302kts
10-May-18 09:34 46.008992 -121.927428 244 34208ft 303kts
10-May-18 09:35 45.967864 -122.032941 244 34210ft 302kts
10-May-18 09:36 45.926625 -122.138340 244 34218ft 302kts
10-May-18 09:37 45.885058 -122.244195 244 33749ft 310kts
10-May-18 09:38 45.849213 -122.335314 244 32435ft 319kts
10-May-18 09:39 45.805158 -122.447164 244 30830ft 323kts
10-May-18 09:40 45.753469 -122.577332 244 28749ft 320kts
10-May-18 09:41 45.692779 -122.671808 226 26955ft 325kts
10-May-18 09:42 45.624207 -122.754225 226 25157ft 318kts
10-May-18 09:43 45.558047 -122.836032 228 23362ft 312kts
10-May-18 09:44 45.493664 -122.917110 228 21557ft 299kts
10-May-18 09:45 45.443043 -122.981124 229 20177ft 285kts
10-May-18 09:46 45.384822 -123.054942 229 18579ft 278kts
10-May-18 09:47 45.326780 -123.128466 229 16977ft 278kts
10-May-18 09:48 45.269150 -123.201157 229 15380ft 276kts
10-May-18 09:49 45.212769 -123.271956 229 13779ft 261kts
10-May-18 09:50 45.158883 -123.339604 228 12175ft 256kts
10-May-18 09:51 45.105701 -123.406263 227 10577ft 255kts
10-May-18 09:52 45.052535 -123.472612 227 8976ft 251kts
10-May-18 09:53 45.001812 -123.535493 227 7374ft 234kts
10-May-18 09:54 44.953920 -123.595002 226 6025ft 220kts
10-May-18 09:55 44.910637 -123.648413 227 5942ft 190kts
10-May-18 09:56 44.872393 -123.695827 228 5951ft 181kts
10-May-18 09:57 44.835470 -123.741445 228 5953ft 167kts
10-May-18 09:58 44.801713 -123.782971 230 5965ft 155kts
10-May-18 09:59 44.769873 -123.822145 230 5846ft 155kts
10-May-18 10:00 44.733728 -123.867092 228 4187ft 181kts
10-May-18 10:01 44.696636 -123.915399 227 2821ft 177kts
10-May-18 10:02 44.663513 -123.963838 228 2275ft 166kts
10-May-18 10:03 44.634445 -124.004564 228 1863ft 136kts
10-May-18 10:04 44.608620 -124.040480 228 1657ft 123kts
10-May-18 10:05 44.586309 -124.073594 236 1658ft 103kts
10-May-18 10:06 44.562455 -124.092407 178 1746ft 110kts
10-May-18 10:07 44.538294 -124.075080 91 1148ft 119kts
10-May-18 10:08 44.559450 -124.057415 354 479ft 89kts
10-May-18 10:09 44.578859 -124.058862 357 162ft 29kts
10-May-18 10:10 44.582322 -124.060057 177 162ft 4kts
10-May-18 10:11 44.579062 -124.060567 272 162ft 11kts
10-May-18 10:12 44.578873 -124.061600 269 162ft 0kts

Navigation Log

Ident Type
Flight plan parsing failed, navigation log unavailable